Time;durP1;ratioP1;P1;durP2;ratioP2;P2;SDS_P1;SDS_P2;PMS_P1;PMS_P2;Temp;Humidity;BMP_temperature;BMP_pressure;BME280_temperature;BME280_humidity;BME280_pressure;Samples;Min_cycle;Max_cycle;Signal;HPM_P1;HPM_P2
2021/06/13 00:01:29;;;;;;;1.93;1.83;;;;;;;21.06;93.11;98031.47;5041608;28;20296;-68
2021/06/13 00:03:55;;;;;;;2.17;2.07;;;;;;;21.05;92.64;98022.09;5018643;28;20251;-70
2021/06/13 00:06:22;;;;;;;2.33;2.20;;;;;;;21.19;93.37;98047.34;5038277;28;20220;-70
2021/06/13 00:08:48;;;;;;;1.97;1.87;;;;;;;21.07;93.33;98028.09;5025163;28;20240;-70
2021/06/13 00:11:15;;;;;;;2.00;1.90;;;;;;;21.20;93.55;98054.19;5035510;28;20289;-71
2021/06/13 00:13:42;;;;;;;2.10;2.00;;;;;;;21.13;93.34;98043.66;5024635;28;20324;-70
2021/06/13 00:16:08;;;;;;;2.40;2.20;;;;;;;20.02;93.10;97877.41;5033218;28;20235;-71
2021/06/13 00:18:35;;;;;;;2.20;2.10;;;;;;;20.73;93.28;97981.56;5042973;28;20266;-70
2021/06/13 00:21:02;;;;;;;2.20;2.00;;;;;;;21.17;93.45;98055.78;5030318;28;20608;-70
2021/06/13 00:23:29;;;;;;;1.90;1.80;;;;;;;20.77;93.44;97986.00;5040467;28;20247;-69
2021/06/13 00:26:15;;;;;;;2.80;1.90;;;;;;;21.14;94.08;98078.66;5021088;28;20229;-70
2021/06/13 00:28:42;;;;;;;2.30;2.10;;;;;;;21.10;93.49;98052.09;5038756;28;20201;-71
2021/06/13 00:31:08;;;;;;;2.13;2.00;;;;;;;21.08;93.06;98056.28;5041925;28;20745;-69
2021/06/13 00:33:35;;;;;;;2.10;2.00;;;;;;;21.14;93.17;98061.63;5037378;28;20296;-71
2021/06/13 00:36:02;;;;;;;2.33;2.13;;;;;;;21.16;93.31;98065.13;5042881;28;20340;-71
2021/06/13 00:38:28;;;;;;;2.40;2.20;;;;;;;20.89;93.04;98023.13;5037994;28;20296;-71
2021/06/13 00:40:55;;;;;;;2.40;2.20;;;;;;;21.22;93.31;98077.25;5020554;28;20300;-70
2021/06/13 00:43:22;;;;;;;2.40;2.20;;;;;;;21.16;93.14;98070.22;5037703;28;20299;-71
2021/06/13 00:45:48;;;;;;;2.03;1.93;;;;;;;21.16;93.23;98065.13;5039099;28;20256;-70
2021/06/13 00:48:15;;;;;;;2.10;2.00;;;;;;;20.96;92.63;98031.94;5040266;28;20241;-70
2021/06/13 00:50:51;;;;;;;1.90;1.80;;;;;;;21.23;93.02;98084.13;5010433;28;20574;-70
2021/06/13 00:53:18;;;;;;;2.47;2.27;;;;;;;21.14;93.00;98069.28;5042423;28;20205;-71
2021/06/13 00:55:45;;;;;;;1.83;1.73;;;;;;;21.22;93.20;98082.38;5036824;28;20217;-70
2021/06/13 00:58:12;;;;;;;2.37;2.20;;;;;;;21.23;93.06;98084.13;5024151;28;20623;-70
2021/06/13 01:00:38;;;;;;;2.10;2.00;;;;;;;21.05;92.75;98055.31;5032502;28;20236;-70
2021/06/13 01:03:06;;;;;;;2.40;2.20;;;;;;;21.21;92.98;98086.63;5018511;28;20239;-70
2021/06/13 01:05:33;;;;;;;2.20;2.10;;;;;;;21.02;92.75;98068.81;5037065;28;20253;-70
2021/06/13 01:08:22;;;;;;;3.03;2.10;;;;;;;21.20;93.03;98089.13;5039299;28;20718;-71
2021/06/13 01:11:11;;;;;;;2.20;2.00;;;;;;;21.20;93.05;98081.47;5036711;28;20210;-71
2021/06/13 01:13:45;;;;;;;2.20;2.00;;;;;;;21.03;93.04;98065.47;5032295;28;20205;-71
2021/06/13 01:16:23;;;;;;;2.60;2.40;;;;;;;21.15;93.18;98081.28;5021167;28;20267;-71
2021/06/13 01:19:00;;;;;;;2.20;2.10;;;;;;;21.19;93.12;98095.03;5020181;28;20651;-71
2021/06/13 01:21:31;;;;;;;2.50;2.30;;;;;;;21.07;92.96;98071.53;5031194;28;20245;-70
2021/06/13 01:24:21;;;;;;;2.20;2.10;;;;;;;21.19;93.14;98101.03;5038592;28;20201;-69
2021/06/13 01:27:13;;;;;;;2.33;2.13;;;;;;;21.20;93.07;98107.88;5036615;28;20520;-71
2021/06/13 01:29:46;;;;;;;2.10;2.00;;;;;;;21.13;93.29;98093.13;5039954;28;20756;-70
2021/06/13 01:32:16;;;;;;;2.37;2.20;;;;;;;20.69;93.19;98016.34;5037695;28;20690;-71
2021/06/13 01:34:50;;;;;;;2.10;2.00;;;;;;;21.00;93.05;98067.00;5038813;28;20250;-69
2021/06/13 01:37:18;;;;;;;2.27;2.10;;;;;;;20.61;92.92;98002.41;5029466;28;20661;-71
2021/06/13 01:39:45;;;;;;;2.27;2.07;;;;;;;21.04;93.04;98073.97;5042357;28;20209;-70
2021/06/13 01:42:12;;;;;;;2.20;2.10;;;;;;;21.20;92.87;98102.75;5029918;28;20289;-70
2021/06/13 01:44:40;;;;;;;2.40;2.20;;;;;;;21.12;92.93;98085.38;5015442;28;20229;-71
2021/06/13 01:47:07;;;;;;;2.50;2.30;;;;;;;21.20;93.22;98101.91;5024691;28;20316;-71
2021/06/13 01:49:34;;;;;;;2.03;1.93;;;;;;;20.69;93.09;98011.22;5023535;28;20204;-70
2021/06/13 01:52:00;;;;;;;2.70;2.50;;;;;;;20.93;93.06;98053.06;5039460;28;20292;-69
2021/06/13 01:54:27;;;;;;;2.50;2.30;;;;;;;21.21;93.02;98106.19;5039167;28;20319;-71
2021/06/13 01:56:54;;;;;;;2.47;2.27;;;;;;;20.78;93.05;98023.50;5038569;28;20316;-70
2021/06/13 01:59:20;;;;;;;2.00;1.90;;;;;;;21.21;92.74;98096.88;5015077;28;20291;-68
2021/06/13 02:01:47;;;;;;;2.17;2.00;;;;;;;20.89;92.91;98037.56;5037728;28;20233;-71
2021/06/13 02:04:14;;;;;;;2.40;2.20;;;;;;;21.22;92.83;98100.28;5039245;28;20224;-70
2021/06/13 02:06:49;;;;;;;2.00;1.90;;;;;;;21.22;92.86;98097.72;5038477;28;20720;-71
2021/06/13 02:09:15;;;;;;;2.23;2.10;;;;;;;21.02;92.62;98062.84;5040254;28;20235;-71
2021/06/13 02:11:42;;;;;;;2.23;2.13;;;;;;;21.21;92.77;98101.97;5025452;28;20236;-71
2021/06/13 02:14:09;;;;;;;2.40;2.20;;;;;;;21.21;92.75;98107.09;5039367;28;20295;-70
2021/06/13 02:16:38;;;;;;;2.10;2.00;;;;;;;21.21;92.55;98108.75;5030163;28;20784;-70
2021/06/13 02:19:05;;;;;;;2.00;1.90;;;;;;;20.49;92.55;97983.16;5036651;28;20232;-72
2021/06/13 02:21:31;;;;;;;2.17;2.00;;;;;;;21.20;92.76;98104.47;5024168;28;20320;-71
2021/06/13 02:23:58;;;;;;;2.60;2.40;;;;;;;20.68;92.84;98022.25;5040417;28;20230;-70
2021/06/13 02:26:24;;;;;;;2.47;2.27;;;;;;;20.20;92.88;97966.66;5040071;28;20225;-71
2021/06/13 02:28:54;;;;;;;2.40;2.20;;;;;;;21.07;92.67;98089.44;5037671;28;20235;-70
2021/06/13 02:31:24;;;;;;;2.60;2.40;;;;;;;21.19;92.92;98118.03;5039808;28;20213;-70
2021/06/13 02:33:50;;;;;;;2.40;2.30;;;;;;;21.19;92.91;98120.59;5038735;28;20600;-70
2021/06/13 02:36:17;;;;;;;2.17;2.07;;;;;;;20.83;92.79;98067.97;5033408;28;20312;-70
2021/06/13 02:38:44;;;;;;;2.40;2.20;;;;;;;20.70;92.76;98035.97;5036875;28;20599;-70
2021/06/13 02:41:10;;;;;;;2.60;2.40;;;;;;;21.18;92.37;98129.09;5034729;28;20733;-70
2021/06/13 02:43:37;;;;;;;2.20;2.10;;;;;;;21.20;92.73;98135.16;5036942;28;20239;-70
2021/06/13 02:46:03;;;;;;;2.50;2.30;;;;;;;21.05;92.62;98114.94;5042964;28;20260;-68
2021/06/13 02:48:30;;;;;;;2.60;2.40;;;;;;;20.72;92.64;98059.03;5037236;28;20271;-70
2021/06/13 02:50:57;;;;;;;2.33;2.13;;;;;;;20.85;92.74;98082.56;5039191;28;20307;-71
2021/06/13 02:53:44;;;;;;;2.40;2.20;;;;;;;21.06;93.00;98121.81;5041441;28;20209;-70
2021/06/13 02:56:22;;;;;;;2.50;2.30;;;;;;;21.20;92.85;98141.09;5041668;28;21361;-70
2021/06/13 02:58:53;;;;;;;2.57;2.33;;;;;;;20.70;92.89;98055.53;5042132;28;20696;-71
2021/06/13 03:01:21;;;;;;;2.40;2.20;;;;;;;20.71;92.72;98059.81;5042604;28;20291;-70
2021/06/13 03:03:47;;;;;;;2.60;2.40;;;;;;;20.67;92.65;98048.63;5037844;28;20201;-70
2021/06/13 03:06:22;;;;;;;2.33;2.20;;;;;;;21.18;92.70;98140.19;5017326;28;20316;-71
2021/06/13 03:08:48;;;;;;;2.20;2.10;;;;;;;21.22;92.65;98156.50;5040442;28;20247;-70
2021/06/13 03:11:16;;;;;;;2.23;2.13;;;;;;;20.72;92.55;98059.88;5042760;28;20311;-70
2021/06/13 03:13:44;;;;;;;2.50;2.30;;;;;;;21.15;92.49;98137.50;5039083;28;20228;-69
2021/06/13 03:16:10;;;;;;;2.40;2.20;;;;;;;21.22;93.19;98146.28;5022054;28;20270;-70
2021/06/13 03:18:37;;;;;;;2.40;2.30;;;;;;;21.22;92.64;98147.16;5028120;28;20213;-71
2021/06/13 03:21:04;;;;;;;2.37;2.20;;;;;;;21.07;92.50;98126.09;5039537;28;20289;-70
2021/06/13 03:23:31;;;;;;;2.17;2.07;;;;;;;21.23;92.50;98150.59;5041007;28;20241;-70
2021/06/13 03:26:01;;;;;;;2.70;2.50;;;;;;;20.90;92.52;98104.06;5040765;28;20666;-71
2021/06/13 03:28:29;;;;;;;2.50;2.30;;;;;;;20.95;92.50;98112.81;5029467;28;20240;-70
2021/06/13 03:30:55;;;;;;;2.47;2.27;;;;;;;21.15;92.27;98152.84;5040867;28;20298;-70
2021/06/13 03:33:22;;;;;;;2.37;2.27;;;;;;;21.15;92.38;98149.41;5030361;28;20205;-69
2021/06/13 03:35:49;;;;;;;2.33;2.13;;;;;;;21.20;92.21;98168.38;5037257;28;20255;-70
2021/06/13 03:38:15;;;;;;;2.63;2.43;;;;;;;20.56;92.39;98052.41;5042527;28;20240;-71
2021/06/13 03:40:42;;;;;;;2.40;2.30;;;;;;;20.84;92.29;98108.06;5034314;28;20235;-70
2021/06/13 03:43:09;;;;;;;2.43;2.23;;;;;;;20.77;92.56;98099.25;5012009;28;20207;-71
2021/06/13 03:45:35;;;;;;;2.30;2.20;;;;;;;20.69;92.52;98081.88;5034110;28;20303;-70
2021/06/13 03:48:03;;;;;;;2.37;2.20;;;;;;;21.19;92.60;98166.59;5042395;28;20670;-70
2021/06/13 03:50:30;;;;;;;2.47;2.30;;;;;;;20.83;92.32;98107.19;5029489;28;20682;-71
2021/06/13 03:52:56;;;;;;;2.60;2.40;;;;;;;21.19;92.81;98172.59;5035183;28;20288;-70
2021/06/13 03:55:23;;;;;;;2.20;2.10;;;;;;;21.08;92.89;98155.94;5025322;28;20312;-70
2021/06/13 03:57:50;;;;;;;2.67;2.47;;;;;;;20.72;92.35;98093.09;5036176;28;20287;-71
2021/06/13 04:00:18;;;;;;;2.33;2.17;;;;;;;21.20;92.73;98178.59;5023097;28;20664;-70
2021/06/13 04:02:48;;;;;;;2.20;2.10;;;;;;;20.81;92.43;98107.94;5034016;28;20224;-70
2021/06/13 04:05:15;;;;;;;2.47;2.27;;;;;;;21.19;92.48;98177.72;5036923;28;20291;-70
2021/06/13 04:07:42;;;;;;;2.30;2.20;;;;;;;21.08;92.69;98162.75;5032203;28;20240;-70
2021/06/13 04:10:09;;;;;;;2.50;2.30;;;;;;;20.92;92.41;98135.66;5030970;28;20259;-70
2021/06/13 04:12:36;;;;;;;2.33;2.23;;;;;;;21.07;92.56;98168.66;5012763;28;20201;-71
2021/06/13 04:15:03;;;;;;;2.53;2.33;;;;;;;21.20;92.34;98193.94;5035200;28;20300;-69
2021/06/13 04:17:29;;;;;;;2.83;2.53;;;;;;;21.20;92.41;98194.78;5035941;28;20320;-72
2021/06/13 04:19:56;;;;;;;2.20;2.00;;;;;;;20.92;92.65;98150.09;5016273;28;20232;-70
2021/06/13 04:22:22;;;;;;;3.20;2.40;;;;;;;21.05;92.57;98166.03;5037150;28;20233;-71
2021/06/13 04:24:50;;;;;;;2.73;2.53;;;;;;;20.55;92.37;98094.09;5041201;28;20236;-70
2021/06/13 04:27:23;;;;;;;2.60;2.40;;;;;;;20.91;92.34;98150.94;5033910;28;20256;-70
2021/06/13 04:29:50;;;;;;;2.20;2.10;;;;;;;21.21;92.19;98209.34;5025756;28;20287;-71
2021/06/13 04:32:16;;;;;;;2.80;2.50;;;;;;;21.16;92.18;98195.47;5045643;28;20240;-70
2021/06/13 04:34:43;;;;;;;2.50;2.20;;;;;;;20.59;92.09;98095.06;5039490;28;20652;-70
2021/06/13 04:37:10;;;;;;;2.33;2.23;;;;;;;20.73;92.30;98119.50;5024975;28;20248;-70
2021/06/13 04:39:37;;;;;;;2.60;2.40;;;;;;;20.83;92.01;98142.94;5035049;28;20235;-70
2021/06/13 04:42:06;;;;;;;2.20;2.10;;;;;;;21.22;92.49;98207.63;5032576;28;20807;-69
2021/06/13 04:44:34;;;;;;;2.17;2.07;;;;;;;21.10;92.47;98202.91;5041047;28;20209;-69
2021/06/13 04:47:01;;;;;;;2.20;2.00;;;;;;;20.56;91.61;98106.03;5042371;28;20332;-71
2021/06/13 04:49:45;;;;;;;2.57;2.33;;;;;;;21.20;91.84;98212.69;5035197;28;20224;-71
2021/06/13 04:52:15;;;;;;;2.53;2.33;;;;;;;21.07;89.94;98190.00;5017882;28;20890;-71
2021/06/13 04:55:07;;;;;;;2.10;2.00;;;;;;;21.19;90.04;98220.28;5028802;28;20205;-70
2021/06/13 04:57:56;;;;;;;1.90;1.80;;;;;;;21.19;90.46;98225.41;5042389;28;20228;-70
2021/06/13 05:00:23;;;;;;;2.07;1.97;;;;;;;21.18;90.81;98232.22;5037524;28;20551;-71
2021/06/13 05:02:50;;;;;;;2.00;1.90;;;;;;;21.18;90.81;98233.88;5040395;28;20201;-71
2021/06/13 05:05:17;;;;;;;2.43;2.07;;;;;;;20.52;90.53;98116.06;5038632;28;20649;-71
2021/06/13 05:07:43;;;;;;;2.10;2.00;;;;;;;20.96;90.81;98193.78;5032275;28;20332;-71
2021/06/13 05:10:10;;;;;;;2.20;2.10;;;;;;;21.06;91.00;98211.25;5030876;28;20616;-70
2021/06/13 05:12:50;;;;;;;1.90;1.80;;;;;;;20.59;90.92;98125.72;5027448;28;20259;-70
2021/06/13 05:15:18;;;;;;;2.10;2.00;;;;;;;20.80;90.88;98165.81;5040240;28;20917;-71
2021/06/13 05:17:44;;;;;;;3.07;2.00;;;;;;;21.20;90.93;98234.84;5028118;28;20225;-71
2021/06/13 05:20:11;;;;;;;2.30;2.10;;;;;;;21.00;90.72;98208.44;5037871;28;20236;-71
2021/06/13 05:22:54;;;;;;;2.10;2.00;;;;;;;21.15;90.60;98236.31;5037232;28;20299;-71
2021/06/13 05:25:22;;;;;;;2.03;1.93;;;;;;;21.18;90.69;98247.56;5028341;28;20209;-71
2021/06/13 05:27:48;;;;;;;2.30;2.10;;;;;;;20.72;90.93;98167.16;5039371;28;20662;-69
2021/06/13 05:30:15;;;;;;;2.50;2.30;;;;;;;21.03;90.64;98229.03;5033831;28;20201;-71
2021/06/13 05:32:42;;;;;;;1.90;1.80;;;;;;;21.10;90.70;98235.25;5018949;28;20229;-70
2021/06/13 05:37:35;;;;;;;2.00;1.90;;;;;;;21.16;91.02;98259.38;5059007;22;20259;-69
2021/06/13 05:40:05;;;;;;;2.33;2.20;;;;;;;21.17;91.20;98261.13;5042650;28;20237;-68
2021/06/13 05:42:32;;;;;;;2.57;2.37;;;;;;;20.36;91.40;98113.63;5022076;28;20643;-66
2021/06/13 05:44:58;;;;;;;4.90;2.20;;;;;;;20.67;91.19;98172.88;5040686;28;20197;-68
2021/06/13 05:47:25;;;;;;;2.27;2.07;;;;;;;21.16;91.21;98261.94;5028041;28;20233;-69
2021/06/13 05:49:51;;;;;;;2.40;2.20;;;;;;;21.17;91.32;98265.38;5027909;28;20267;-64
2021/06/13 05:52:18;;;;;;;3.60;2.00;;;;;;;21.17;91.49;98262.84;5027365;28;20236;-66
2021/06/13 05:54:44;;;;;;;2.17;1.97;;;;;;;20.14;91.31;98103.31;5026677;28;20255;-66
2021/06/13 05:57:11;;;;;;;1.73;1.63;;;;;;;21.17;91.48;98275.59;5022222;28;20251;-67
2021/06/13 05:59:37;;;;;;;3.70;2.33;;;;;;;20.81;91.34;98215.22;5029929;28;20237;-68
2021/06/13 06:02:04;;;;;;;1.90;1.80;;;;;;;21.18;90.87;98274.78;5026301;28;20304;-67
2021/06/13 06:04:30;;;;;;;2.40;2.20;;;;;;;21.01;91.35;98245.06;4999715;28;20902;-68
2021/06/13 06:06:58;;;;;;;2.60;2.07;;;;;;;21.16;91.42;98274.72;4999882;28;20287;-70
2021/06/13 06:09:25;;;;;;;2.23;2.10;;;;;;;21.16;91.35;98274.72;5022652;28;20241;-66
2021/06/13 06:11:51;;;;;;;2.60;1.90;;;;;;;21.15;91.20;98272.09;5006727;28;20240;-69
2021/06/13 06:14:18;;;;;;;2.07;1.90;;;;;;;21.15;91.27;98273.00;5014146;28;20711;-68
2021/06/13 06:16:45;;;;;;;4.10;2.20;;;;;;;21.15;91.24;98269.53;5002066;28;20303;-67
2021/06/13 06:19:12;;;;;;;2.57;2.00;;;;;;;21.15;91.19;98272.09;5021268;28;20224;-68
2021/06/13 06:21:38;;;;;;;1.97;1.87;;;;;;;21.16;91.86;98278.94;5023965;28;20293;-66
2021/06/13 06:24:07;;;;;;;2.20;2.00;;;;;;;21.14;91.69;98289.13;5021905;28;20205;-66
2021/06/13 06:26:34;;;;;;;2.20;2.00;;;;;;;21.15;91.22;98287.44;5004558;28;20312;-68
2021/06/13 06:29:01;;;;;;;2.30;2.10;;;;;;;21.14;91.52;98286.56;5021354;28;20249;-66
2021/06/13 06:31:27;;;;;;;2.27;1.90;;;;;;;21.10;91.43;98286.34;4991115;28;20279;-68
2021/06/13 06:33:54;;;;;;;2.13;2.03;;;;;;;21.14;91.55;98290.81;5028772;28;20303;-66
2021/06/13 06:36:20;;;;;;;2.00;1.90;;;;;;;21.13;91.28;98292.50;5004970;28;20317;-65
2021/06/13 06:38:47;;;;;;;2.40;2.20;;;;;;;21.14;91.52;98303.59;5020342;28;20734;-67
2021/06/13 06:41:13;;;;;;;1.97;1.80;;;;;;;21.13;91.83;98300.16;5020129;28;20263;-66
2021/06/13 06:43:40;;;;;;;2.10;2.00;;;;;;;21.13;91.97;98301.81;5023056;28;20229;-67
2021/06/13 06:46:06;;;;;;;2.33;2.13;;;;;;;21.13;91.67;98312.06;5016561;28;20313;-65
2021/06/13 06:48:33;;;;;;;1.97;1.87;;;;;;;21.13;91.30;98315.50;5024044;28;20643;-66
2021/06/13 06:51:00;;;;;;;2.73;1.90;;;;;;;21.13;91.25;98319.72;5024269;28;20590;-66
2021/06/13 06:53:26;;;;;;;2.33;2.10;;;;;;;21.13;91.49;98317.16;5015896;28;20292;-69
2021/06/13 06:55:53;;;;;;;2.27;2.07;;;;;;;21.12;91.24;98312.88;5011278;28;20317;-64
2021/06/13 06:58:19;;;;;;;2.00;1.90;;;;;;;20.98;91.44;98296.94;5013795;28;20202;-66
2021/06/13 07:00:46;;;;;;;2.53;2.33;;;;;;;21.13;91.55;98315.50;4978707;28;20234;-66
2021/06/13 07:03:13;;;;;;;2.20;2.00;;;;;;;20.91;91.49;98276.13;5012393;28;20695;-64
2021/06/13 07:05:39;;;;;;;2.30;2.10;;;;;;;21.13;91.47;98323.16;4978721;28;20309;-70
2021/06/13 07:08:06;;;;;;;1.83;1.73;;;;;;;21.13;91.44;98318.06;5015168;28;20316;-65
2021/06/13 07:10:32;;;;;;;1.90;1.80;;;;;;;21.13;91.33;98320.59;5001375;28;20285;-63
2021/06/13 07:13:00;;;;;;;2.20;2.00;;;;;;;20.95;91.49;98296.81;5016073;28;20202;-68
2021/06/13 07:15:27;;;;;;;2.13;1.93;;;;;;;21.13;91.65;98324.84;5004813;28;21081;-65
2021/06/13 07:17:54;;;;;;;1.87;1.77;;;;;;;21.12;91.12;98326.53;5020661;28;20233;-70
2021/06/13 07:20:20;;;;;;;2.20;2.00;;;;;;;21.13;91.91;98319.72;5021624;28;20289;-67
2021/06/13 07:22:47;;;;;;;2.10;2.00;;;;;;;21.12;91.55;98323.97;5018517;28;20212;-67
2021/06/13 07:25:13;;;;;;;2.10;2.00;;;;;;;21.11;91.49;98327.31;5024594;28;20244;-64
2021/06/13 07:27:40;;;;;;;2.30;1.90;;;;;;;21.12;91.47;98326.53;5021647;28;20309;-67
2021/06/13 07:30:09;;;;;;;2.67;2.27;;;;;;;20.96;91.62;98301.09;5004436;28;20208;-65
2021/06/13 07:32:36;;;;;;;2.43;1.90;;;;;;;21.12;91.66;98333.31;4981035;28;20310;-66
2021/06/13 07:35:04;;;;;;;2.23;2.10;;;;;;;20.95;91.61;98309.59;5008173;28;20717;-66
2021/06/13 07:37:31;;;;;;;1.90;1.80;;;;;;;21.11;91.50;98332.44;4987550;28;20264;-68
2021/06/13 07:39:58;;;;;;;2.10;1.90;;;;;;;20.94;91.41;98300.16;5016422;28;20293;-67
2021/06/13 07:42:24;;;;;;;1.73;1.63;;;;;;;21.11;91.49;98337.53;4994469;28;20734;-67
2021/06/13 07:44:51;;;;;;;2.30;2.10;;;;;;;20.99;91.47;98323.38;5000040;28;20252;-67
2021/06/13 07:47:18;;;;;;;1.90;1.80;;;;;;;20.95;91.58;98309.59;5003090;28;20649;-67
2021/06/13 07:49:45;;;;;;;2.63;1.80;;;;;;;21.11;91.75;98335.00;4987411;28;20591;-67
2021/06/13 07:52:13;;;;;;;1.97;1.87;;;;;;;21.11;91.28;98342.66;5003939;28;20678;-67
2021/06/13 07:54:39;;;;;;;1.87;1.73;;;;;;;21.11;91.78;98337.53;5017966;28;20248;-71
2021/06/13 07:57:06;;;;;;;1.70;1.60;;;;;;;21.12;91.48;98343.53;5022387;28;20253;-67
2021/06/13 07:59:35;;;;;;;3.13;1.90;;;;;;;21.11;91.19;98347.78;5019783;28;20583;-67
2021/06/13 08:02:03;;;;;;;2.00;1.90;;;;;;;21.11;91.62;98342.66;5001487;28;20970;-67
2021/06/13 08:04:35;;;;;;;2.30;2.10;;;;;;;21.11;91.60;98350.31;5011846;28;20263;-70
2021/06/13 08:07:03;;;;;;;1.97;1.83;;;;;;;21.11;91.83;98352.03;5013106;28;20253;-66
2021/06/13 08:09:49;;;;;;;2.20;2.10;;;;;;;21.11;91.73;98331.59;4996977;28;20675;-68
2021/06/13 08:12:16;;;;;;;2.90;2.00;;;;;;;21.11;91.61;98345.22;5012162;28;20301;-69
2021/06/13 08:14:43;;;;;;;1.80;1.70;;;;;;;21.10;91.62;98333.25;4997540;28;20321;-66
2021/06/13 08:17:10;;;;;;;2.13;2.00;;;;;;;21.10;91.66;98338.38;5019972;28;20260;-67
2021/06/13 08:19:36;;;;;;;2.17;1.97;;;;;;;21.10;91.68;98343.47;5011229;28;20198;-68
2021/06/13 08:22:23;;;;;;;2.00;1.80;;;;;;;21.09;91.53;98339.19;5004183;28;20206;-65
2021/06/13 08:24:49;;;;;;;1.83;1.73;;;;;;;21.10;91.68;98340.91;5024171;28;20245;-69
2021/06/13 08:27:16;;;;;;;1.87;1.77;;;;;;;21.10;91.38;98340.03;5024511;28;20669;-67
2021/06/13 08:29:43;;;;;;;1.77;1.67;;;;;;;21.08;91.21;98334.84;5016160;28;20281;-64
2021/06/13 08:32:10;;;;;;;2.10;1.90;;;;;;;20.94;91.43;98317.16;5021522;28;20264;-74
2021/06/13 08:34:37;;;;;;;2.27;2.03;;;;;;;21.09;91.55;98328.97;5004166;28;20730;-67
2021/06/13 08:37:04;;;;;;;2.30;2.10;;;;;;;21.08;91.54;98334.84;5026753;28;20683;-67
2021/06/13 08:39:31;;;;;;;1.70;1.60;;;;;;;21.08;91.53;98334.84;5017986;28;20241;-69
2021/06/13 08:41:57;;;;;;;2.10;1.90;;;;;;;21.10;91.53;98340.91;4998032;28;20273;-67
2021/06/13 08:44:24;;;;;;;1.90;1.80;;;;;;;21.10;91.51;98334.91;5001591;28;20648;-67
2021/06/13 08:46:52;;;;;;;1.83;1.73;;;;;;;21.10;91.52;98335.81;5000155;28;20252;-68
2021/06/13 08:49:25;;;;;;;2.20;2.00;;;;;;;21.09;91.40;98338.28;5004146;28;20750;-64
2021/06/13 08:51:52;;;;;;;2.10;2.00;;;;;;;21.09;91.38;98328.97;5020757;28;20229;-66
2021/06/13 08:54:19;;;;;;;1.87;1.70;;;;;;;21.10;91.39;98329.81;5022677;28;20288;-66
2021/06/13 08:56:46;;;;;;;1.90;1.70;;;;;;;21.10;91.66;98330.69;5000135;28;20221;-67
2021/06/13 08:59:13;;;;;;;1.90;1.80;;;;;;;21.10;91.57;98330.69;5017294;28;20205;-65
2021/06/13 09:01:39;;;;;;;1.87;1.73;;;;;;;21.10;91.64;98334.91;5017815;28;20242;-70
2021/06/13 09:04:06;;;;;;;2.40;2.20;;;;;;;21.10;91.74;98335.81;5012238;28;20235;-67
2021/06/13 09:06:33;;;;;;;1.77;1.67;;;;;;;20.87;91.80;98303.22;5015389;28;20225;-65
2021/06/13 09:09:00;;;;;;;1.90;1.80;;;;;;;20.97;91.56;98313.09;4984993;28;20225;-68
2021/06/13 09:11:31;;;;;;;2.00;1.90;;;;;;;21.11;91.53;98342.66;5005656;28;20259;-65
2021/06/13 09:14:11;;;;;;;1.80;1.70;;;;;;;21.10;91.71;98338.38;5002578;28;20240;-67
2021/06/13 09:16:44;;;;;;;2.10;1.90;;;;;;;21.10;91.47;98347.69;5002356;28;20642;-65
2021/06/13 09:19:11;;;;;;;2.10;1.90;;;;;;;21.11;91.50;98354.59;5000920;28;20206;-67
2021/06/13 09:21:39;;;;;;;2.00;1.90;;;;;;;21.10;91.44;98335.81;5014122;28;20229;-66
2021/06/13 09:24:21;;;;;;;2.30;2.10;;;;;;;21.10;91.47;98333.25;5016713;28;20241;-67
2021/06/13 09:26:48;;;;;;;1.80;1.70;;;;;;;20.96;91.60;98316.44;5020374;28;20252;-67
2021/06/13 09:29:15;;;;;;;2.37;1.77;;;;;;;21.11;91.56;98336.69;5023068;28;20230;-67
2021/06/13 09:31:41;;;;;;;2.57;1.80;;;;;;;21.11;91.54;98334.13;5023688;28;20296;-65
2021/06/13 09:34:16;;;;;;;2.20;2.10;;;;;;;21.10;91.45;98333.25;5015452;28;20197;-66
2021/06/13 09:36:42;;;;;;;1.80;1.70;;;;;;;21.10;91.64;98335.81;4990024;28;20236;-66
2021/06/13 09:39:13;;;;;;;2.60;1.97;;;;;;;20.50;91.39;98235.13;5022288;28;20288;-67
2021/06/13 09:41:44;;;;;;;3.77;1.80;;;;;;;21.11;91.49;98345.22;4986669;28;20240;-68
2021/06/13 09:44:15;;;;;;;2.73;1.97;;;;;;;21.11;91.44;98346.91;5021040;28;20229;-68
2021/06/13 09:46:43;;;;;;;1.90;1.80;;;;;;;20.94;91.13;98309.47;5017155;28;20256;-67
2021/06/13 09:49:15;;;;;;;1.80;1.70;;;;;;;21.11;91.14;98334.13;5008030;28;20261;-67
2021/06/13 09:51:48;;;;;;;1.80;1.70;;;;;;;21.10;91.30;98338.38;5016844;28;20263;-65
2021/06/13 09:54:26;;;;;;;1.80;1.70;;;;;;;20.99;91.18;98325.94;5008770;28;20214;-68
2021/06/13 09:56:54;;;;;;;1.73;1.63;;;;;;;21.10;91.20;98346.03;4968809;28;20221;-68
2021/06/13 09:59:25;;;;;;;1.90;1.80;;;;;;;21.11;91.18;98352.03;5002095;28;20236;-68
2021/06/13 10:01:52;;;;;;;1.80;1.70;;;;;;;20.94;91.50;98315.47;5002024;28;20260;-68
2021/06/13 10:04:19;;;;;;;1.70;1.60;;;;;;;21.10;90.18;98348.59;5004195;28;20224;-65
2021/06/13 10:07:12;;;;;;;1.80;1.67;;;;;;;21.12;90.48;98346.09;5020829;28;20313;-69
2021/06/13 10:09:40;;;;;;;1.67;1.57;;;;;;;20.99;90.51;98324.22;4998340;28;20652;-70
2021/06/13 10:12:08;;;;;;;4.20;1.80;;;;;;;20.98;90.54;98313.94;4981232;28;20247;-67
2021/06/13 10:14:37;;;;;;;1.80;1.70;;;;;;;21.15;90.74;98336.00;4994882;28;20722;-69
2021/06/13 10:17:03;;;;;;;2.27;2.07;;;;;;;21.14;91.05;98330.00;5010696;28;20744;-65
2021/06/13 10:19:36;;;;;;;2.33;2.00;;;;;;;21.16;90.88;98341.19;4996563;28;20241;-66
2021/06/13 10:22:03;;;;;;;1.97;1.77;;;;;;;21.02;90.84;98314.16;5012375;28;20237;-67
2021/06/13 10:24:32;;;;;;;1.97;1.80;;;;;;;21.18;90.76;98333.59;4988143;28;20252;-68
2021/06/13 10:27:04;;;;;;;2.20;2.00;;;;;;;21.19;90.80;98366.88;5003394;28;20230;-69
2021/06/13 10:29:32;;;;;;;1.60;1.50;;;;;;;21.19;90.84;98341.31;4992142;28;20805;-69
2021/06/13 10:32:00;;;;;;;1.80;1.70;;;;;;;21.02;90.77;98321.81;4986291;28;20718;-67
2021/06/13 10:34:27;;;;;;;1.70;1.60;;;;;;;21.17;90.67;98332.69;4986697;28;20202;-67
2021/06/13 10:36:56;;;;;;;1.93;1.80;;;;;;;21.03;90.63;98307.34;5020860;28;20252;-66
2021/06/13 10:39:24;;;;;;;1.90;1.80;;;;;;;20.21;90.63;98170.00;4989349;28;20632;-64
2021/06/13 10:41:51;;;;;;;2.03;1.80;;;;;;;21.16;90.72;98335.19;4984822;28;20741;-68
2021/06/13 10:44:20;;;;;;;3.30;1.63;;;;;;;17.27;90.38;97652.75;5023027;28;20203;-69
2021/06/13 10:46:48;;;;;;;2.07;1.90;;;;;;;21.16;90.94;98330.06;4997126;28;20248;-69
2021/06/13 10:49:34;;;;;;;2.07;1.87;;;;;;;21.18;91.08;98326.81;5025341;28;20222;-66
2021/06/13 10:52:20;;;;;;;3.87;1.73;;;;;;;21.02;90.73;98301.38;5022735;28;20621;-69
2021/06/13 10:54:53;;;;;;;2.20;2.00;;;;;;;21.18;90.72;98339.59;4989421;28;20285;-68
2021/06/13 10:57:20;;;;;;;1.70;1.60;;;;;;;21.19;90.72;98335.31;5026824;28;20307;-66
2021/06/13 10:59:48;;;;;;;2.13;1.93;;;;;;;21.20;90.80;98334.53;5013943;28;20233;-68
2021/06/13 11:02:23;;;;;;;1.90;1.80;;;;;;;17.41;90.15;97685.63;5025837;28;20212;-66
2021/06/13 11:05:01;;;;;;;2.10;1.90;;;;;;;21.18;90.40;98342.13;5003123;28;20277;-67
2021/06/13 11:07:34;;;;;;;2.13;1.93;;;;;;;21.18;90.72;98331.03;5025408;28;20222;-67
2021/06/13 11:10:10;;;;;;;2.57;1.80;;;;;;;21.18;90.82;98338.69;5026068;28;20222;-67
2021/06/13 11:12:55;;;;;;;2.03;1.80;;;;;;;21.17;90.79;98342.06;4994451;28;20253;-67
2021/06/13 11:15:22;;;;;;;1.70;1.60;;;;;;;21.16;90.47;98342.84;5007751;28;20746;-66
2021/06/13 11:18:13;;;;;;;2.10;1.90;;;;;;;21.17;90.72;98336.97;5017980;28;20289;-66
2021/06/13 11:20:52;;;;;;;3.13;1.83;;;;;;;21.17;91.07;98342.06;5014734;28;20197;-69
2021/06/13 11:23:21;;;;;;;2.20;1.97;;;;;;;21.16;90.94;98332.63;4991666;28;20205;-67
2021/06/13 11:25:52;;;;;;;2.00;1.90;;;;;;;21.16;90.92;98336.06;5016344;28;20222;-68
2021/06/13 11:28:35;;;;;;;2.47;1.97;;;;;;;21.17;90.82;98337.81;5023654;28;20328;-66
2021/06/13 11:31:07;;;;;;;3.67;2.10;;;;;;;21.16;90.98;98336.06;5013892;28;20205;-68
2021/06/13 11:33:37;;;;;;;3.20;2.30;;;;;;;21.16;91.11;98323.28;5014610;28;20862;-67
2021/06/13 11:36:21;;;;;;;2.70;2.00;;;;;;;21.16;91.07;98327.53;5040916;22;20233;-65
2021/06/13 11:39:03;;;;;;;2.50;2.03;;;;;;;21.15;91.25;98331.78;5035039;28;20224;-65
2021/06/13 11:41:30;;;;;;;2.00;1.77;;;;;;;21.16;91.04;98335.19;5046460;28;20636;-66
2021/06/13 11:43:57;;;;;;;3.30;2.20;;;;;;;21.16;91.34;98335.19;5042515;28;20296;-65
2021/06/13 11:46:33;;;;;;;2.20;2.00;;;;;;;21.15;91.09;98324.13;5023790;28;20320;-66